Time;durP1;ratioP1;P1;durP2;ratioP2;P2;SDS_P1;SDS_P2;PMS_P1;PMS_P2;Temp;Humidity;BMP_temperature;BMP_pressure;BME280_temperature;BME280_humidity;BME280_pressure;Samples;Min_cycle;Max_cycle;Signal;HPM_P1;HPM_P2
2021/05/22 00:01:31;;;;;;;11.00;8.52;;;;;;;8.56;96.84;95388.53;5065632;28;20045;-72
2021/05/22 00:03:58;;;;;;;45.15;10.25;;;;;;;8.64;96.37;95400.47;5066553;28;20036;-72
2021/05/22 00:06:25;;;;;;;11.68;8.70;;;;;;;8.53;96.90;95401.91;5066154;28;20072;-72
2021/05/22 00:08:52;;;;;;;12.07;8.68;;;;;;;8.49;96.74;95393.72;5065840;28;20119;-72
2021/05/22 00:11:19;;;;;;;10.80;7.68;;;;;;;8.49;95.80;95391.13;5065313;28;20680;-72
2021/05/22 00:13:46;;;;;;;9.52;8.18;;;;;;;8.50;95.16;95384.97;5063037;28;20044;-72
2021/05/22 00:16:12;;;;;;;14.43;8.07;;;;;;;8.46;93.85;95381.16;5065451;28;20033;-72
2021/05/22 00:18:39;;;;;;;11.07;7.68;;;;;;;8.44;93.81;95385.75;5068439;28;20051;-72
2021/05/22 00:21:06;;;;;;;9.02;7.35;;;;;;;8.39;93.97;95394.13;5065832;28;20048;-72
2021/05/22 00:23:33;;;;;;;16.45;9.57;;;;;;;8.34;93.43;95382.78;5065952;28;20048;-72
2021/05/22 00:26:00;;;;;;;12.23;7.93;;;;;;;8.11;93.80;95360.63;5067597;28;20943;-72
2021/05/22 00:28:27;;;;;;;12.00;7.75;;;;;;;8.19;93.58;95381.19;5064323;28;20044;-72
2021/05/22 00:30:54;;;;;;;11.60;7.53;;;;;;;8.16;93.21;95379.00;5047671;28;20044;-73
2021/05/22 00:33:20;;;;;;;11.30;7.43;;;;;;;8.12;92.11;95372.63;5068408;28;20123;-73
2021/05/22 00:35:49;;;;;;;20.90;8.30;;;;;;;8.09;91.82;95375.63;5065498;28;20509;-72
2021/05/22 00:38:17;;;;;;;12.00;7.70;;;;;;;8.05;91.37;95382.22;5067178;28;20058;-72
2021/05/22 00:40:43;;;;;;;9.43;6.85;;;;;;;7.96;91.01;95367.81;5066855;28;20101;-73
2021/05/22 00:43:10;;;;;;;9.73;7.18;;;;;;;7.89;91.25;95373.03;5065405;28;20040;-72
2021/05/22 00:45:38;;;;;;;10.55;7.63;;;;;;;7.77;91.54;95369.44;5065639;28;20033;-72
2021/05/22 00:48:05;;;;;;;12.18;8.18;;;;;;;7.72;91.40;95361.47;5049597;28;20046;-72
2021/05/22 00:50:38;;;;;;;14.35;9.00;;;;;;;7.69;91.80;95362.66;5065189;28;20036;-72
2021/05/22 00:53:06;;;;;;;14.02;9.35;;;;;;;7.66;92.57;95369.03;5047347;28;20044;-72
2021/05/22 00:55:35;;;;;;;14.13;8.85;;;;;;;7.54;92.97;95355.06;5065181;28;20039;-72
2021/05/22 00:58:03;;;;;;;17.98;9.40;;;;;;;7.60;93.56;95369.06;5064987;28;20048;-72
2021/05/22 01:00:44;;;;;;;13.40;10.32;;;;;;;7.61;94.19;95355.09;5065094;28;20135;-72
2021/05/22 01:03:16;;;;;;;15.23;9.60;;;;;;;7.61;94.56;95355.88;5064856;28;20090;-72
2021/05/22 01:05:44;;;;;;;21.17;10.45;;;;;;;7.56;94.88;95342.72;5063842;28;20469;-72
2021/05/22 01:08:17;;;;;;;14.05;9.77;;;;;;;7.61;94.67;95349.91;5064591;28;20549;-71
2021/05/22 01:10:48;;;;;;;16.50;9.93;;;;;;;7.45;94.71;95325.97;5065222;28;20055;-72
2021/05/22 01:13:18;;;;;;;13.23;10.02;;;;;;;7.45;95.04;95330.34;5064071;28;20079;-72
2021/05/22 01:15:49;;;;;;;16.48;9.52;;;;;;;7.46;95.19;95332.75;5062970;28;20094;-73
2021/05/22 01:18:16;;;;;;;13.05;9.60;;;;;;;7.49;95.19;95341.09;5064813;28;20051;-73
2021/05/22 01:20:53;;;;;;;12.65;10.05;;;;;;;7.45;95.40;95346.72;5064382;28;20438;-73
2021/05/22 01:23:26;;;;;;;15.35;10.77;;;;;;;7.41;95.85;95353.25;5065177;28;20045;-73
2021/05/22 01:25:54;;;;;;;15.60;10.37;;;;;;;7.44;97.20;95357.28;5065004;28;20033;-73
2021/05/22 01:28:21;;;;;;;17.88;12.38;;;;;;;7.19;100.00;95351.84;5066188;28;20757;-73
2021/05/22 01:30:48;;;;;;;19.33;12.18;;;;;;;6.96;100.00;95350.38;5064970;28;20040;-73
2021/05/22 01:33:19;;;;;;;17.05;10.55;;;;;;;7.03;100.00;95340.84;5064882;28;20070;-72
2021/05/22 01:35:47;;;;;;;13.07;9.63;;;;;;;7.08;100.00;95351.44;5064715;28;20043;-73
2021/05/22 01:38:14;;;;;;;14.15;10.27;;;;;;;7.10;100.00;95347.84;5064978;28;20415;-73
2021/05/22 01:40:41;;;;;;;12.75;9.65;;;;;;;7.15;100.00;95350.63;5064441;28;20040;-73
2021/05/22 01:43:09;;;;;;;13.10;8.88;;;;;;;7.17;99.44;95348.66;5064967;28;20051;-73
2021/05/22 01:45:41;;;;;;;13.05;8.25;;;;;;;7.17;98.33;95344.28;5063492;28;20047;-73
2021/05/22 01:48:17;;;;;;;14.63;9.60;;;;;;;7.17;97.49;95343.47;5064453;28;20071;-73
2021/05/22 01:50:56;;;;;;;17.65;9.43;;;;;;;7.06;96.89;95332.69;5063943;28;20052;-72
2021/05/22 01:53:24;;;;;;;12.10;9.27;;;;;;;7.11;96.55;95354.63;5064388;28;20035;-73
2021/05/22 01:55:51;;;;;;;11.70;9.38;;;;;;;7.08;96.04;95356.59;5063064;28;20051;-73
2021/05/22 01:58:18;;;;;;;11.80;9.27;;;;;;;7.08;95.31;95359.19;5064300;28;20045;-72
2021/05/22 02:00:45;;;;;;;19.80;9.90;;;;;;;7.05;95.39;95367.34;5066198;28;20043;-73
2021/05/22 02:03:25;;;;;;;13.98;10.25;;;;;;;7.04;95.28;95359.78;5064428;28;20044;-73
2021/05/22 02:05:54;;;;;;;13.75;9.95;;;;;;;6.93;94.65;95358.53;5065262;28;20044;-73
2021/05/22 02:08:23;;;;;;;14.98;9.52;;;;;;;6.91;94.52;95360.53;5046701;28;20068;-73
2021/05/22 02:10:51;;;;;;;13.95;10.10;;;;;;;6.74;94.73;95356.72;5064697;28;20102;-73
2021/05/22 02:13:18;;;;;;;19.27;11.35;;;;;;;6.65;95.15;95354.28;5064040;28;20053;-73
2021/05/22 02:15:57;;;;;;;12.85;10.30;;;;;;;6.69;95.63;95360.66;5045822;28;20459;-73
2021/05/22 02:18:28;;;;;;;12.70;9.65;;;;;;;6.72;96.26;95363.84;5064589;28;20047;-73
2021/05/22 02:20:57;;;;;;;14.70;9.63;;;;;;;6.68;96.23;95366.03;5067177;28;20052;-72
2021/05/22 02:23:26;;;;;;;20.13;9.73;;;;;;;6.60;96.37;95343.69;5067125;28;20508;-73
2021/05/22 02:25:54;;;;;;;14.85;10.10;;;;;;;6.63;96.53;95348.50;5068180;28;20032;-72
2021/05/22 02:28:22;;;;;;;15.32;9.63;;;;;;;6.69;96.45;95363.25;5067944;28;20051;-72
2021/05/22 02:30:50;;;;;;;14.43;9.65;;;;;;;6.63;96.37;95352.88;5067368;28;20517;-73
2021/05/22 02:33:18;;;;;;;16.58;10.73;;;;;;;6.65;96.45;95350.91;5067843;28;20040;-72
2021/05/22 02:35:46;;;;;;;15.40;9.70;;;;;;;6.63;96.94;95353.69;5066418;28;20040;-72
2021/05/22 02:38:24;;;;;;;14.40;10.13;;;;;;;6.63;96.66;95348.50;5067927;28;20494;-72
2021/05/22 02:40:58;;;;;;;13.98;9.90;;;;;;;6.62;96.74;95352.06;5067936;28;20044;-72
2021/05/22 02:43:27;;;;;;;12.38;10.73;;;;;;;6.61;96.90;95358.25;5065669;28;20043;-72
2021/05/22 02:45:55;;;;;;;15.35;10.80;;;;;;;6.65;97.38;95356.06;5067581;28;20061;-72
2021/05/22 02:48:24;;;;;;;16.90;11.63;;;;;;;6.60;97.58;95354.06;5067628;28;20041;-72
2021/05/22 02:50:51;;;;;;;14.90;10.40;;;;;;;6.63;98.20;95358.84;5069014;28;20127;-72
2021/05/22 02:53:23;;;;;;;16.92;11.95;;;;;;;6.58;99.83;95350.84;5067357;28;20119;-73
2021/05/22 02:55:51;;;;;;;17.92;11.95;;;;;;;6.57;100.00;95344.09;5068749;28;20056;-73
2021/05/22 02:58:19;;;;;;;15.73;11.27;;;;;;;6.54;100.00;95344.47;5067275;28;20041;-73
2021/05/22 03:00:47;;;;;;;13.88;10.95;;;;;;;6.41;100.00;95344.41;5067522;28;20120;-72
2021/05/22 03:03:16;;;;;;;16.77;12.55;;;;;;;6.50;100.00;95343.28;5066299;28;20041;-73
2021/05/22 03:05:43;;;;;;;14.25;10.27;;;;;;;6.54;100.00;95352.25;5066079;28;20557;-72
2021/05/22 03:08:11;;;;;;;14.25;10.05;;;;;;;6.60;100.00;95356.63;5067025;28;20103;-73
2021/05/22 03:10:38;;;;;;;16.13;11.43;;;;;;;6.53;100.00;95355.03;5068348;28;20516;-73
2021/05/22 03:13:05;;;;;;;17.58;11.55;;;;;;;6.61;100.00;95357.44;5067424;28;20059;-72
2021/05/22 03:15:33;;;;;;;18.02;11.52;;;;;;;6.56;100.00;95358.03;5065368;28;20037;-72
2021/05/22 03:17:59;;;;;;;22.08;12.55;;;;;;;6.54;100.00;95362.59;5066143;28;20044;-72
2021/05/22 03:20:26;;;;;;;18.27;11.80;;;;;;;6.62;100.00;95372.78;5068493;28;20420;-72
2021/05/22 03:22:54;;;;;;;15.40;12.25;;;;;;;6.52;100.00;95349.06;5066717;28;20066;-72
2021/05/22 03:25:21;;;;;;;18.30;11.20;;;;;;;6.51;100.00;95370.72;5065320;28;20462;-72
2021/05/22 03:27:48;;;;;;;16.75;12.38;;;;;;;6.48;100.00;95376.28;5064643;28;20452;-74
2021/05/22 03:30:15;;;;;;;15.98;11.63;;;;;;;6.57;100.00;95385.50;5048732;28;20597;-72
2021/05/22 03:32:42;;;;;;;14.95;11.32;;;;;;;6.53;100.00;95373.94;5065445;28;20040;-72
2021/05/22 03:35:09;;;;;;;14.68;10.60;;;;;;;6.57;100.00;95393.28;5047583;28;20062;-72
2021/05/22 03:37:36;;;;;;;16.58;10.35;;;;;;;6.65;100.00;95393.09;5066001;28;20048;-72
2021/05/22 03:40:05;;;;;;;20.05;10.02;;;;;;;6.76;100.00;95399.53;5066128;28;20521;-72
2021/05/22 03:42:33;;;;;;;15.43;9.70;;;;;;;6.85;100.00;95407.94;5066791;28;20071;-71
2021/05/22 03:44:59;;;;;;;17.83;10.30;;;;;;;6.90;100.00;95421.09;5066203;28;20059;-71
2021/05/22 03:47:26;;;;;;;21.45;15.55;;;;;;;6.90;100.00;95428.88;5066777;28;20052;-72
2021/05/22 03:49:53;;;;;;;14.60;11.50;;;;;;;6.93;100.00;95420.69;5066842;28;20048;-72
2021/05/22 03:52:20;;;;;;;18.33;9.68;;;;;;;7.06;100.00;95431.13;5065283;28;20037;-72
2021/05/22 03:54:47;;;;;;;17.10;11.98;;;;;;;7.12;99.93;95433.94;5049626;28;20064;-72
2021/05/22 03:57:14;;;;;;;15.07;11.15;;;;;;;7.04;100.00;95435.69;5066212;28;20068;-72
2021/05/22 03:59:40;;;;;;;16.42;11.77;;;;;;;7.00;99.94;95426.69;5067302;28;20047;-71
2021/05/22 04:02:07;;;;;;;20.70;15.45;;;;;;;7.06;100.00;95435.50;5065684;28;20067;-72
2021/05/22 04:04:34;;;;;;;18.70;12.48;;;;;;;7.10;100.00;95431.53;5067361;28;20039;-72
2021/05/22 04:07:01;;;;;;;25.25;20.00;;;;;;;7.17;100.00;95432.34;5048192;28;20052;-72
2021/05/22 04:09:28;;;;;;;24.27;17.02;;;;;;;7.26;100.00;95420.03;5066183;28;20467;-72
2021/05/22 04:11:55;;;;;;;18.15;13.88;;;;;;;7.38;100.00;95428.00;5065638;28;20048;-72
2021/05/22 04:14:22;;;;;;;20.13;13.95;;;;;;;7.40;100.00;95416.47;5068459;28;20543;-71
2021/05/22 04:16:48;;;;;;;18.08;13.23;;;;;;;7.47;100.00;95412.09;5065417;28;20049;-72
2021/05/22 04:19:15;;;;;;;16.38;11.57;;;;;;;7.56;100.00;95430.88;5065851;28;20051;-72
2021/05/22 04:21:42;;;;;;;15.18;12.90;;;;;;;7.49;100.00;95429.22;5066094;28;20054;-72
2021/05/22 04:24:09;;;;;;;16.75;12.40;;;;;;;7.54;100.00;95421.66;5063409;28;20117;-71
2021/05/22 04:26:36;;;;;;;15.27;11.45;;;;;;;7.66;100.00;95407.94;5066944;28;20041;-72
2021/05/22 04:29:04;;;;;;;17.60;12.63;;;;;;;7.91;100.00;95406.56;5064524;28;20047;-72
2021/05/22 04:31:31;;;;;;;16.75;12.48;;;;;;;8.12;100.00;95408.94;5064109;28;20123;-72
2021/05/22 04:33:58;;;;;;;17.30;13.18;;;;;;;8.21;100.00;95412.94;5065213;28;20111;-72
2021/05/22 04:36:24;;;;;;;17.73;13.18;;;;;;;8.32;100.00;95413.28;5065682;28;20480;-72
2021/05/22 04:38:52;;;;;;;20.35;13.18;;;;;;;8.49;100.00;95411.91;5058932;28;20498;-72
2021/05/22 04:41:19;;;;;;;22.65;12.85;;;;;;;8.61;100.00;95407.69;5061951;28;20048;-72
2021/05/22 04:43:46;;;;;;;23.30;12.57;;;;;;;8.74;100.00;95396.44;5064403;28;20136;-72
2021/05/22 04:46:13;;;;;;;14.63;11.15;;;;;;;8.96;100.00;95399.56;5065383;28;20037;-72
2021/05/22 04:48:40;;;;;;;19.98;10.95;;;;;;;9.06;100.00;95403.53;5064774;28;20115;-72
2021/05/22 04:51:09;;;;;;;15.57;12.18;;;;;;;9.04;100.00;95389.94;5045815;28;20083;-72
2021/05/22 04:53:36;;;;;;;19.15;12.52;;;;;;;9.12;100.00;95397.50;5066572;28;20041;-72
2021/05/22 04:56:03;;;;;;;16.83;12.50;;;;;;;9.25;100.00;95405.22;5065050;28;20518;-72
2021/05/22 04:58:30;;;;;;;17.80;11.77;;;;;;;9.45;100.00;95425.13;5065944;28;20438;-73
2021/05/22 05:00:56;;;;;;;15.98;11.82;;;;;;;9.65;100.00;95423.22;5065050;28;20121;-72
2021/05/22 05:03:23;;;;;;;14.45;10.68;;;;;;;9.83;100.00;95429.47;5064656;28;20098;-76
2021/05/22 05:05:50;;;;;;;19.38;11.75;;;;;;;9.97;100.00;95425.78;5065444;28;20041;-70
2021/05/22 05:08:19;;;;;;;16.70;11.18;;;;;;;10.20;100.00;95435.59;5065316;28;20131;-72
2021/05/22 05:10:48;;;;;;;17.88;11.35;;;;;;;10.37;98.16;95435.91;5066384;28;20446;-71
2021/05/22 05:13:16;;;;;;;17.73;11.43;;;;;;;10.45;97.13;95443.44;5066166;28;20060;-72
2021/05/22 05:15:44;;;;;;;19.30;11.35;;;;;;;10.44;98.64;95441.84;5063069;28;20056;-72
2021/05/22 05:18:11;;;;;;;16.35;11.10;;;;;;;10.43;97.69;95429.03;5047354;28;20097;-72
2021/05/22 05:20:38;;;;;;;18.02;10.68;;;;;;;10.37;97.05;95430.69;5064276;28;20114;-72
2021/05/22 05:23:05;;;;;;;16.98;13.00;;;;;;;10.33;97.98;95445.97;5065080;28;20470;-72
2021/05/22 05:25:32;;;;;;;15.32;12.07;;;;;;;10.32;98.88;95443.56;5065980;28;20482;-72
2021/05/22 05:27:59;;;;;;;17.88;11.98;;;;;;;10.36;98.61;95460.34;5064202;28;20048;-73
2021/05/22 05:30:26;;;;;;;13.82;10.63;;;;;;;10.48;97.17;95471.66;5046002;28;20119;-73
2021/05/22 05:32:53;;;;;;;13.23;11.02;;;;;;;10.34;97.11;95467.56;5065888;28;20561;-73
2021/05/22 05:35:20;;;;;;;15.82;11.18;;;;;;;10.40;98.19;95482.34;5064550;28;20043;-73
2021/05/22 05:37:47;;;;;;;16.08;10.80;;;;;;;10.47;97.02;95485.69;5065064;28;20045;-73
2021/05/22 05:40:14;;;;;;;12.80;10.75;;;;;;;10.54;96.38;95483.03;5064813;28;20126;-73
2021/05/22 05:42:41;;;;;;;17.23;11.48;;;;;;;10.52;96.58;95475.41;5065110;28;20052;-72
2021/05/22 05:45:09;;;;;;;18.63;12.40;;;;;;;10.58;97.02;95478.19;5064730;28;20422;-72
2021/05/22 05:47:36;;;;;;;18.50;11.55;;;;;;;10.79;97.27;95496.00;5064609;28;20421;-73
2021/05/22 05:50:03;;;;;;;13.60;11.60;;;;;;;10.84;96.43;95498.78;5064266;28;20171;-73
2021/05/22 05:52:30;;;;;;;14.10;12.00;;;;;;;10.81;95.58;95488.00;5048098;28;20045;-73
2021/05/22 05:54:57;;;;;;;13.85;10.88;;;;;;;11.02;95.95;95500.59;5067102;28;20498;-73
2021/05/22 05:57:24;;;;;;;14.13;11.15;;;;;;;11.15;95.71;95484.00;5068416;28;20146;-73
2021/05/22 05:59:51;;;;;;;13.80;10.57;;;;;;;11.28;95.32;95483.06;5050750;28;20036;-72
2021/05/22 06:02:18;;;;;;;23.10;11.77;;;;;;;11.45;94.26;95493.69;5068593;28;20054;-73
2021/05/22 06:04:45;;;;;;;13.68;10.98;;;;;;;11.56;93.63;95485.13;5068470;28;20139;-73
2021/05/22 06:07:12;;;;;;;19.23;12.38;;;;;;;11.60;92.55;95483.66;5068430;28;20048;-74
2021/05/22 06:09:41;;;;;;;17.55;11.00;;;;;;;11.67;94.12;95489.59;5068538;28;20417;-74
2021/05/22 06:12:09;;;;;;;12.73;9.98;;;;;;;11.76;93.01;95499.72;5069581;28;20055;-74
2021/05/22 06:14:36;;;;;;;12.82;10.18;;;;;;;12.00;92.18;95504.03;5050229;28;20043;-74
2021/05/22 06:17:04;;;;;;;12.13;9.65;;;;;;;11.99;90.75;95494.63;5068883;28;20041;-74
2021/05/22 06:19:31;;;;;;;14.15;9.75;;;;;;;12.15;91.82;95492.38;5067197;28;20486;-74
2021/05/22 06:21:58;;;;;;;15.85;9.82;;;;;;;12.30;88.61;95484.91;5067997;28;20040;-74
2021/05/22 06:24:25;;;;;;;17.08;10.05;;;;;;;12.52;87.72;95497.44;5067971;28;20044;-74
2021/05/22 06:26:54;;;;;;;25.13;10.02;;;;;;;12.69;88.19;95502.75;5067937;28;20566;-74
2021/05/22 06:29:21;;;;;;;14.45;8.20;;;;;;;12.99;85.34;95502.63;5067018;28;20048;-74
2021/05/22 06:31:48;;;;;;;18.00;9.68;;;;;;;13.10;84.98;95509.66;5067696;28;20040;-74
2021/05/22 06:34:14;;;;;;;17.13;9.55;;;;;;;13.15;84.51;95501.94;5067755;28;20068;-75
2021/05/22 06:36:41;;;;;;;12.05;9.65;;;;;;;13.28;84.40;95510.56;5067783;28;20158;-75
2021/05/22 06:39:09;;;;;;;15.93;8.90;;;;;;;13.37;83.52;95514.44;5069428;28;20131;-75
2021/05/22 06:41:36;;;;;;;10.88;9.35;;;;;;;13.48;83.00;95513.59;5067735;28;20124;-75
2021/05/22 06:44:05;;;;;;;17.23;10.60;;;;;;;13.46;84.66;95507.81;5067618;28;20102;-76
2021/05/22 06:49:05;;;;;;;14.98;8.98;;;;;;;13.34;82.07;95493.94;5068391;28;20598;-75
2021/05/22 06:51:32;;;;;;;16.15;9.40;;;;;;;13.49;81.05;95507.34;5067230;28;20048;-75
2021/05/22 06:53:59;;;;;;;16.23;9.32;;;;;;;13.33;80.25;95497.59;5068123;28;20044;-75
2021/05/22 06:56:26;;;;;;;26.80;10.80;;;;;;;13.52;82.47;95496.44;5067108;28;20506;-74
2021/05/22 06:58:52;;;;;;;26.33;9.95;;;;;;;13.65;83.11;95499.78;5050997;28;20445;-73
2021/05/22 07:01:19;;;;;;;26.80;10.20;;;;;;;13.66;82.89;95475.97;5067253;28;20044;-72
2021/05/22 07:03:46;;;;;;;28.52;11.40;;;;;;;13.93;81.54;95491.91;5061568;28;20048;-73
2021/05/22 07:06:13;;;;;;;18.60;10.40;;;;;;;14.10;81.45;95512.91;5063745;28;20040;-74
2021/05/22 07:08:40;;;;;;;23.88;11.18;;;;;;;14.04;80.42;95523.53;5061598;28;20055;-74
2021/05/22 07:11:07;;;;;;;21.13;10.27;;;;;;;14.03;80.01;95527.19;5064727;28;20053;-74
2021/05/22 07:13:34;;;;;;;28.23;9.75;;;;;;;14.03;80.82;95527.19;5065354;28;20071;-72
2021/05/22 07:16:01;;;;;;;16.63;9.70;;;;;;;14.24;79.31;95544.84;5061819;28;20826;-73
2021/05/22 07:18:28;;;;;;;20.80;10.20;;;;;;;14.12;79.08;95544.09;5063977;28;20156;-73
2021/05/22 07:20:55;;;;;;;21.92;9.02;;;;;;;14.17;78.81;95528.47;5065613;28;20043;-73
2021/05/22 07:23:22;;;;;;;12.60;8.95;;;;;;;14.18;77.49;95531.88;5066073;28;20076;-74
2021/05/22 07:25:50;;;;;;;19.40;9.90;;;;;;;14.28;80.09;95530.22;5065840;28;20040;-73
2021/05/22 07:28:17;;;;;;;11.10;9.50;;;;;;;14.46;79.03;95526.59;5065132;28;20420;-73
2021/05/22 07:30:44;;;;;;;16.25;9.70;;;;;;;14.61;76.54;95518.19;5065708;28;20047;-74
2021/05/22 07:33:12;;;;;;;11.98;9.07;;;;;;;14.92;76.31;95518.66;5063641;28;20061;-74
2021/05/22 07:35:39;;;;;;;13.48;9.13;;;;;;;15.20;75.82;95516.94;5063253;28;20037;-74
2021/05/22 07:38:06;;;;;;;24.17;9.82;;;;;;;15.44;75.65;95506.97;5064114;28;20048;-74
2021/05/22 07:40:33;;;;;;;12.23;10.55;;;;;;;15.67;76.00;95482.31;5048304;28;20047;-74
2021/05/22 07:43:00;;;;;;;15.30;9.57;;;;;;;15.99;74.62;95473.69;5064561;28;20064;-75
2021/05/22 07:45:27;;;;;;;12.38;8.45;;;;;;;15.96;74.63;95468.97;5064278;28;20046;-74
2021/05/22 07:47:53;;;;;;;18.90;8.00;;;;;;;15.97;73.99;95449.50;5063397;28;20100;-74
2021/05/22 07:50:20;;;;;;;20.80;11.95;;;;;;;16.36;71.90;95452.72;5064355;28;20606;-74
2021/05/22 07:52:47;;;;;;;13.27;7.72;;;;;;;16.64;70.08;95448.19;5066606;28;20061;-76
2021/05/22 07:55:14;;;;;;;14.82;7.93;;;;;;;16.37;72.08;95443.03;5069777;28;20040;-77
2021/05/22 07:57:41;;;;;;;12.50;7.50;;;;;;;16.47;71.93;95447.53;5068810;28;20056;-76
2021/05/22 08:00:09;;;;;;;11.63;6.85;;;;;;;16.67;67.11;95458.19;5068940;28;20048;-76
2021/05/22 08:02:37;;;;;;;11.93;7.55;;;;;;;16.70;67.91;95449.00;5067974;28;20071;-77
2021/05/22 08:05:07;;;;;;;14.95;8.43;;;;;;;16.70;69.84;95435.84;5072551;28;20060;-78
2021/05/22 08:07:34;;;;;;;12.88;7.50;;;;;;;16.81;69.51;95433.03;5069497;28;20039;-77
2021/05/22 08:10:03;;;;;;;16.40;9.73;;;;;;;17.21;65.72;95454.53;5072382;28;20563;-78
2021/05/22 08:12:31;;;;;;;11.05;7.03;;;;;;;17.55;63.66;95459.41;5079359;28;20048;-80
2021/05/22 08:14:58;;;;;;;10.98;7.47;;;;;;;17.40;62.77;95444.34;5082487;28;20552;-79
2021/05/22 08:17:25;;;;;;;10.43;7.20;;;;;;;16.85;65.70;95470.16;5069274;28;20040;-78
2021/05/22 08:19:52;;;;;;;21.83;10.75;;;;;;;17.25;67.62;95458.28;5074072;28;20083;-80
2021/05/22 08:22:20;;;;;;;12.23;7.00;;;;;;;17.56;65.17;95464.41;5074157;28;20040;-80
2021/05/22 08:24:48;;;;;;;13.60;7.07;;;;;;;17.76;66.74;95453.13;5059845;28;20407;-81
2021/05/22 08:27:15;;;;;;;9.30;7.57;;;;;;;18.03;65.55;95452.16;5067896;28;20109;-76
2021/05/22 08:30:03;;;;;;;9.80;6.68;;;;;;;18.24;64.19;95457.41;5073190;28;20510;-76
2021/05/22 08:32:30;;;;;;;13.93;8.15;;;;;;;18.45;61.25;95452.94;5073007;28;20496;-76
2021/05/22 08:34:58;;;;;;;11.40;5.60;;;;;;;18.62;61.01;95453.47;5066827;28;20068;-78
2021/05/22 08:37:26;;;;;;;7.68;5.25;;;;;;;18.80;58.89;95449.47;5068348;28;20102;-77
2021/05/22 08:39:53;;;;;;;10.07;6.43;;;;;;;19.20;56.57;95453.06;5069903;28;20127;-74
2021/05/22 08:42:23;;;;;;;9.98;5.53;;;;;;;19.46;55.54;95450.31;5064153;28;20062;-73
2021/05/22 08:44:50;;;;;;;6.85;4.75;;;;;;;19.42;54.77;95449.28;5046398;28;20704;-73
2021/05/22 08:47:18;;;;;;;7.80;5.55;;;;;;;19.55;55.60;95448.66;5062676;28;20036;-73
2021/05/22 08:49:46;;;;;;;7.88;5.97;;;;;;;19.75;56.67;95447.00;5064385;28;20136;-73
2021/05/22 08:52:20;;;;;;;11.55;6.07;;;;;;;19.81;54.27;95440.66;5064638;28;20067;-73
2021/05/22 08:54:47;;;;;;;10.48;6.25;;;;;;;19.95;52.88;95452.19;5064386;28;20059;-73
2021/05/22 08:57:16;;;;;;;24.52;6.15;;;;;;;19.92;53.65;95431.59;5065924;28;20047;-73
2021/05/22 08:59:46;;;;;;;47.72;32.92;;;;;;;20.19;52.64;95425.03;5063571;28;20061;-73
2021/05/22 09:02:18;;;;;;;13.50;5.13;;;;;;;20.39;48.30;95440.72;5059667;28;20052;-73
2021/05/22 09:05:15;;;;;;;11.57;3.78;;;;;;;20.68;47.50;95437.31;5047840;28;20080;-73
2021/05/22 09:07:44;;;;;;;10.98;3.95;;;;;;;20.66;45.06;95431.53;5044860;28;20052;-73
2021/05/22 09:10:28;;;;;;;8.55;4.72;;;;;;;20.49;46.11;95418.69;5046072;28;20044;-72
2021/05/22 09:13:00;;;;;;;11.50;3.22;;;;;;;20.61;45.67;95423.63;5065047;28;20055;-74
2021/05/22 09:15:29;;;;;;;9.20;3.70;;;;;;;20.64;45.87;95428.38;5064501;28;20111;-73
2021/05/22 09:18:01;;;;;;;11.35;4.50;;;;;;;20.67;47.16;95425.16;5062415;28;20041;-73
2021/05/22 09:20:31;;;;;;;5.57;3.85;;;;;;;20.75;46.62;95432.47;5063396;28;20120;-73
2021/05/22 09:23:05;;;;;;;4.28;3.88;;;;;;;20.70;47.37;95419.28;5062917;28;20710;-73
2021/05/22 09:25:44;;;;;;;6.15;4.20;;;;;;;21.00;46.46;95428.00;5062352;28;20036;-73
2021/05/22 09:28:14;;;;;;;4.60;3.22;;;;;;;21.18;45.13;95424.59;5067098;28;20043;-74
2021/05/22 09:30:46;;;;;;;6.28;2.92;;;;;;;21.53;43.77;95414.63;5064565;28;20422;-74
2021/05/22 09:33:18;;;;;;;4.13;3.63;;;;;;;21.39;44.29;95425.13;5067769;28;20051;-74
2021/05/22 09:35:54;;;;;;;6.15;3.33;;;;;;;21.73;43.91;95420.72;5069804;28;20051;-74
2021/05/22 09:38:32;;;;;;;4.25;3.28;;;;;;;21.91;43.33;95409.34;5068665;28;20050;-74
2021/05/22 09:40:58;;;;;;;9.13;4.30;;;;;;;21.86;42.71;95408.59;5070561;28;20047;-74
2021/05/22 09:43:25;;;;;;;4.30;2.78;;;;;;;21.43;43.38;95398.88;5071982;28;20139;-74
2021/05/22 09:45:52;;;;;;;3.40;2.80;;;;;;;21.47;40.50;95409.72;5067875;28;20124;-74
2021/05/22 09:48:24;;;;;;;10.23;3.00;;;;;;;21.63;42.94;95407.63;5048423;28;20052;-74
2021/05/22 09:50:54;;;;;;;4.35;3.47;;;;;;;21.71;45.33;95404.31;5055789;28;20076;-74
2021/05/22 09:53:27;;;;;;;7.30;3.97;;;;;;;21.49;45.57;95408.34;5069943;28;20048;-77
2021/05/22 09:56:24;;;;;;;5.55;4.80;;;;;;;21.62;44.73;95411.34;5078469;28;20048;-79
2021/05/22 09:58:57;;;;;;;3.92;3.20;;;;;;;21.51;44.46;95406.19;5065039;28;20060;-79
2021/05/22 10:01:30;;;;;;;6.28;3.53;;;;;;;21.82;46.79;95397.78;5075235;28;20129;-78
2021/05/22 10:04:17;;;;;;;4.05;2.85;;;;;;;22.29;42.33;95392.56;5054372;28;20044;-79
2021/05/22 10:06:44;;;;;;;7.95;3.35;;;;;;;22.69;40.25;95391.06;5057734;28;20432;-79
2021/05/22 10:09:19;;;;;;;4.65;3.55;;;;;;;22.92;37.31;95388.50;5081495;28;20497;-78
2021/05/22 10:12:04;;;;;;;4.50;2.88;;;;;;;23.08;41.37;95381.88;5078544;28;20044;-80
2021/05/22 10:14:42;;;;;;;6.55;2.88;;;;;;;23.56;38.09;95377.16;5079184;28;20062;-79
2021/05/22 10:17:11;;;;;;;6.18;3.00;;;;;;;23.96;40.73;95366.66;5081120;28;20039;-79
2021/05/22 10:19:38;;;;;;;4.85;2.50;;;;;;;24.15;36.19;95364.59;5082281;28;20115;-79
2021/05/22 10:22:09;;;;;;;10.05;5.05;;;;;;;24.31;35.35;95367.69;5081240;28;20114;-79
2021/05/22 10:24:36;;;;;;;4.25;2.40;;;;;;;24.48;32.61;95353.66;5078969;28;20397;-80
2021/05/22 10:27:03;;;;;;;7.05;4.32;;;;;;;24.74;30.55;95337.00;5084184;28;20464;-80
2021/05/22 10:29:32;;;;;;;6.47;2.70;;;;;;;24.74;28.08;95342.34;5083051;28;20036;-80
2021/05/22 10:31:59;;;;;;;5.60;2.38;;;;;;;24.77;29.55;95331.84;5063647;28;20051;-80
2021/05/22 10:34:27;;;;;;;2.90;1.77;;;;;;;24.72;28.56;95320.56;5076240;28;20131;-79
2021/05/22 10:36:59;;;;;;;3.15;2.63;;;;;;;25.03;29.45;95317.03;5079630;28;20150;-80
2021/05/22 10:39:44;;;;;;;4.43;2.03;;;;;;;25.07;33.85;95323.31;5081322;28;20068;-79
2021/05/22 10:42:23;;;;;;;3.63;1.80;;;;;;;24.99;32.44;95307.00;5082839;28;20045;-80
2021/05/22 10:44:51;;;;;;;4.28;2.78;;;;;;;24.72;32.00;95307.25;5079497;28;20050;-79
2021/05/22 10:47:20;;;;;;;4.82;2.20;;;;;;;25.00;31.53;95303.22;5076737;28;20056;-80
2021/05/22 10:49:57;;;;;;;2.40;1.92;;;;;;;25.35;29.65;95303.31;5079931;28;20052;-79
2021/05/22 10:52:32;;;;;;;2.58;1.65;;;;;;;25.48;27.73;95300.78;5081334;28;20045;-80
2021/05/22 10:54:59;;;;;;;2.42;1.63;;;;;;;25.35;27.35;95297.97;5081045;28;20046;-80
2021/05/22 10:57:27;;;;;;;4.53;1.85;;;;;;;25.17;29.19;95296.34;5079457;28;20033;-79
2021/05/22 11:00:21;;;;;;;2.05;1.70;;;;;;;24.72;28.63;95296.59;5079212;28;20037;-80
2021/05/22 11:03:12;;;;;;;2.55;1.50;;;;;;;24.85;28.76;95289.56;5073478;28;20449;-80
2021/05/22 11:05:40;;;;;;;4.10;1.80;;;;;;;25.70;30.40;95287.28;5072987;28;20067;-79
2021/05/22 11:08:07;;;;;;;3.47;1.73;;;;;;;26.23;27.13;95276.50;5084285;28;20072;-80
2021/05/22 11:10:35;;;;;;;6.13;1.85;;;;;;;26.19;28.26;95275.56;5065255;28;20060;-80
2021/05/22 11:13:03;;;;;;;2.88;1.85;;;;;;;26.52;29.62;95267.72;5084299;28;20060;-80
2021/05/22 11:15:41;;;;;;;10.27;4.18;;;;;;;26.66;31.15;95264.88;5078210;28;20098;-81
2021/05/22 11:18:09;;;;;;;6.65;2.30;;;;;;;26.77;27.98;95266.06;5084150;28;20091;-80
2021/05/22 11:20:37;;;;;;;2.80;2.00;;;;;;;26.87;26.11;95272.91;5089467;28;20047;-81
2021/05/22 11:23:05;;;;;;;5.65;2.15;;;;;;;27.20;26.83;95269.53;5086194;28;20509;-81
2021/05/22 11:25:48;;;;;;;5.32;2.05;;;;;;;25.73;32.83;95264.50;5088846;28;20039;-80
2021/05/22 11:28:25;;;;;;;7.00;1.88;;;;;;;25.29;31.02;95267.22;5088568;28;20036;-80
2021/05/22 11:30:54;;;;;;;5.70;2.50;;;;;;;25.40;30.47;95266.91;5091624;28;20039;-80
2021/05/22 11:33:21;;;;;;;7.28;2.70;;;;;;;25.81;32.19;95265.63;5090769;28;20055;-80
2021/05/22 11:35:51;;;;;;;5.22;3.00;;;;;;;26.88;32.79;95259.25;5086795;28;20036;-79
2021/05/22 11:38:17;;;;;;;3.45;2.17;;;;;;;27.63;25.95;95255.81;5091192;28;20123;-80